sensor_id;sensor_type;location;lat;lon;timestamp;P1;durP1;ratioP1;P2;durP2;ratioP2
34783;SDS011;20998;51.388;7.032;2022-07-12T00:01:08;0.63;;;0.63;;
34783;SDS011;20998;51.388;7.032;2022-07-12T00:03:35;1.20;;;1.10;;
34783;SDS011;20998;51.388;7.032;2022-07-12T00:06:01;0.80;;;0.80;;
34783;SDS011;20998;51.388;7.032;2022-07-12T00:08:27;1.97;;;1.23;;
34783;SDS011;20998;51.388;7.032;2022-07-12T00:10:53;1.13;;;1.03;;
34783;SDS011;20998;51.388;7.032;2022-07-12T00:13:19;0.77;;;0.77;;
34783;SDS011;20998;51.388;7.032;2022-07-12T00:15:45;1.07;;;1.00;;
34783;SDS011;20998;51.388;7.032;2022-07-12T00:18:11;0.73;;;0.73;;
34783;SDS011;20998;51.388;7.032;2022-07-12T00:20:37;1.23;;;0.83;;
34783;SDS011;20998;51.388;7.032;2022-07-12T00:23:03;0.97;;;0.97;;
34783;SDS011;20998;51.388;7.032;2022-07-12T00:25:29;0.63;;;0.63;;
34783;SDS011;20998;51.388;7.032;2022-07-12T00:27:56;1.20;;;0.93;;
34783;SDS011;20998;51.388;7.032;2022-07-12T00:30:22;0.77;;;0.77;;
34783;SDS011;20998;51.388;7.032;2022-07-12T00:32:48;1.40;;;1.10;;
34783;SDS011;20998;51.388;7.032;2022-07-12T00:35:14;1.37;;;1.00;;
34783;SDS011;20998;51.388;7.032;2022-07-12T00:37:41;1.00;;;0.90;;
34783;SDS011;20998;51.388;7.032;2022-07-12T00:40:10;0.93;;;0.93;;
34783;SDS011;20998;51.388;7.032;2022-07-12T00:42:39;0.80;;;0.80;;
34783;SDS011;20998;51.388;7.032;2022-07-12T00:45:05;0.77;;;0.77;;
34783;SDS011;20998;51.388;7.032;2022-07-12T00:47:33;1.03;;;0.80;;
34783;SDS011;20998;51.388;7.032;2022-07-12T00:50:06;1.47;;;1.37;;
34783;SDS011;20998;51.388;7.032;2022-07-12T00:52:32;1.57;;;0.90;;
34783;SDS011;20998;51.388;7.032;2022-07-12T00:54:58;1.00;;;0.90;;
34783;SDS011;20998;51.388;7.032;2022-07-12T00:57:24;1.03;;;0.93;;
34783;SDS011;20998;51.388;7.032;2022-07-12T00:59:50;0.57;;;0.57;;
34783;SDS011;20998;51.388;7.032;2022-07-12T01:02:16;1.60;;;0.70;;
34783;SDS011;20998;51.388;7.032;2022-07-12T01:04:42;1.17;;;1.00;;
34783;SDS011;20998;51.388;7.032;2022-07-12T01:07:10;1.10;;;0.90;;
34783;SDS011;20998;51.388;7.032;2022-07-12T01:09:36;1.27;;;1.00;;
34783;SDS011;20998;51.388;7.032;2022-07-12T01:12:04;1.07;;;0.93;;
34783;SDS011;20998;51.388;7.032;2022-07-12T01:14:30;3.50;;;1.03;;
34783;SDS011;20998;51.388;7.032;2022-07-12T01:16:56;0.60;;;0.60;;
34783;SDS011;20998;51.388;7.032;2022-07-12T01:19:22;1.90;;;1.17;;
34783;SDS011;20998;51.388;7.032;2022-07-12T01:21:49;0.77;;;0.77;;
34783;SDS011;20998;51.388;7.032;2022-07-12T01:24:18;1.57;;;1.20;;
34783;SDS011;20998;51.388;7.032;2022-07-12T01:26:44;1.50;;;0.60;;
34783;SDS011;20998;51.388;7.032;2022-07-12T01:29:11;1.37;;;1.27;;
34783;SDS011;20998;51.388;7.032;2022-07-12T01:31:37;1.07;;;0.73;;
34783;SDS011;20998;51.388;7.032;2022-07-12T01:34:03;1.10;;;0.87;;
34783;SDS011;20998;51.388;7.032;2022-07-12T01:36:30;1.07;;;1.00;;
34783;SDS011;20998;51.388;7.032;2022-07-12T01:38:56;2.20;;;0.90;;
34783;SDS011;20998;51.388;7.032;2022-07-12T01:41:22;1.73;;;1.13;;
34783;SDS011;20998;51.388;7.032;2022-07-12T01:43:52;1.17;;;0.93;;
34783;SDS011;20998;51.388;7.032;2022-07-12T01:46:18;0.73;;;0.67;;
34783;SDS011;20998;51.388;7.032;2022-07-12T01:48:44;1.40;;;1.23;;
34783;SDS011;20998;51.388;7.032;2022-07-12T01:51:10;0.73;;;0.73;;
34783;SDS011;20998;51.388;7.032;2022-07-12T01:53:36;10.43;;;1.20;;
34783;SDS011;20998;51.388;7.032;2022-07-12T01:56:05;1.17;;;0.70;;
34783;SDS011;20998;51.388;7.032;2022-07-12T01:58:32;1.10;;;0.90;;
34783;SDS011;20998;51.388;7.032;2022-07-12T02:00:58;1.63;;;1.03;;
34783;SDS011;20998;51.388;7.032;2022-07-12T02:03:24;0.60;;;0.60;;
34783;SDS011;20998;51.388;7.032;2022-07-12T02:05:50;1.33;;;1.03;;
34783;SDS011;20998;51.388;7.032;2022-07-12T02:08:16;1.40;;;1.13;;
34783;SDS011;20998;51.388;7.032;2022-07-12T02:10:42;1.23;;;0.83;;
34783;SDS011;20998;51.388;7.032;2022-07-12T02:13:09;0.80;;;0.80;;
34783;SDS011;20998;51.388;7.032;2022-07-12T02:15:35;1.63;;;1.43;;
34783;SDS011;20998;51.388;7.032;2022-07-12T02:18:01;2.60;;;1.10;;
34783;SDS011;20998;51.388;7.032;2022-07-12T02:20:27;5.03;;;0.60;;
34783;SDS011;20998;51.388;7.032;2022-07-12T02:22:53;1.57;;;1.10;;
34783;SDS011;20998;51.388;7.032;2022-07-12T02:25:19;0.63;;;0.60;;
34783;SDS011;20998;51.388;7.032;2022-07-12T02:27:45;0.80;;;0.80;;
34783;SDS011;20998;51.388;7.032;2022-07-12T02:30:11;1.90;;;0.83;;
34783;SDS011;20998;51.388;7.032;2022-07-12T02:32:38;0.87;;;0.70;;
34783;SDS011;20998;51.388;7.032;2022-07-12T02:35:04;2.27;;;0.73;;
34783;SDS011;20998;51.388;7.032;2022-07-12T02:37:30;0.60;;;0.60;;
34783;SDS011;20998;51.388;7.032;2022-07-12T02:39:56;3.80;;;1.23;;
34783;SDS011;20998;51.388;7.032;2022-07-12T02:42:41;1.63;;;0.83;;
34783;SDS011;20998;51.388;7.032;2022-07-12T02:45:08;1.33;;;0.93;;
34783;SDS011;20998;51.388;7.032;2022-07-12T02:47:36;0.70;;;0.70;;
34783;SDS011;20998;51.388;7.032;2022-07-12T02:50:02;1.27;;;0.80;;
34783;SDS011;20998;51.388;7.032;2022-07-12T02:52:28;1.40;;;1.30;;
34783;SDS011;20998;51.388;7.032;2022-07-12T02:54:54;0.73;;;0.70;;
34783;SDS011;20998;51.388;7.032;2022-07-12T02:57:20;0.60;;;0.60;;
34783;SDS011;20998;51.388;7.032;2022-07-12T02:59:46;0.83;;;0.83;;
34783;SDS011;20998;51.388;7.032;2022-07-12T03:02:12;1.03;;;0.90;;
34783;SDS011;20998;51.388;7.032;2022-07-12T03:04:38;0.77;;;0.63;;
34783;SDS011;20998;51.388;7.032;2022-07-12T03:07:04;0.60;;;0.60;;
34783;SDS011;20998;51.388;7.032;2022-07-12T03:09:30;1.53;;;1.10;;
34783;SDS011;20998;51.388;7.032;2022-07-12T03:11:56;0.63;;;0.63;;
34783;SDS011;20998;51.388;7.032;2022-07-12T03:14:22;0.60;;;0.60;;
34783;SDS011;20998;51.388;7.032;2022-07-12T03:16:48;1.20;;;0.80;;
34783;SDS011;20998;51.388;7.032;2022-07-12T03:19:14;1.10;;;1.00;;
34783;SDS011;20998;51.388;7.032;2022-07-12T03:21:40;1.20;;;0.67;;
34783;SDS011;20998;51.388;7.032;2022-07-12T03:24:07;1.37;;;1.27;;
34783;SDS011;20998;51.388;7.032;2022-07-12T03:26:33;1.70;;;0.97;;
34783;SDS011;20998;51.388;7.032;2022-07-12T03:28:59;0.73;;;0.73;;
34783;SDS011;20998;51.388;7.032;2022-07-12T03:31:26;0.83;;;0.83;;
34783;SDS011;20998;51.388;7.032;2022-07-12T03:33:52;0.83;;;0.80;;
34783;SDS011;20998;51.388;7.032;2022-07-12T03:36:18;0.50;;;0.50;;
34783;SDS011;20998;51.388;7.032;2022-07-12T03:38:45;0.93;;;0.87;;
34783;SDS011;20998;51.388;7.032;2022-07-12T03:41:11;1.00;;;0.90;;
34783;SDS011;20998;51.388;7.032;2022-07-12T03:43:37;0.70;;;0.70;;
34783;SDS011;20998;51.388;7.032;2022-07-12T03:46:03;1.23;;;0.83;;
34783;SDS011;20998;51.388;7.032;2022-07-12T03:48:30;0.80;;;0.80;;
34783;SDS011;20998;51.388;7.032;2022-07-12T03:50:55;1.43;;;0.93;;
34783;SDS011;20998;51.388;7.032;2022-07-12T03:53:21;0.73;;;0.73;;
34783;SDS011;20998;51.388;7.032;2022-07-12T03:55:48;1.90;;;0.90;;
34783;SDS011;20998;51.388;7.032;2022-07-12T03:58:14;0.70;;;0.70;;
34783;SDS011;20998;51.388;7.032;2022-07-12T04:00:40;1.20;;;1.10;;
34783;SDS011;20998;51.388;7.032;2022-07-12T04:03:08;0.63;;;0.63;;
34783;SDS011;20998;51.388;7.032;2022-07-12T04:05:35;1.00;;;0.90;;
34783;SDS011;20998;51.388;7.032;2022-07-12T04:08:01;0.90;;;0.70;;
34783;SDS011;20998;51.388;7.032;2022-07-12T04:10:27;0.50;;;0.50;;
34783;SDS011;20998;51.388;7.032;2022-07-12T04:12:53;0.80;;;0.73;;
34783;SDS011;20998;51.388;7.032;2022-07-12T04:15:19;0.80;;;0.80;;
34783;SDS011;20998;51.388;7.032;2022-07-12T04:17:45;1.07;;;0.80;;
34783;SDS011;20998;51.388;7.032;2022-07-12T04:20:11;2.07;;;1.43;;
34783;SDS011;20998;51.388;7.032;2022-07-12T04:22:38;0.80;;;0.80;;
34783;SDS011;20998;51.388;7.032;2022-07-12T04:25:05;0.63;;;0.63;;
34783;SDS011;20998;51.388;7.032;2022-07-12T04:27:31;0.90;;;0.90;;
34783;SDS011;20998;51.388;7.032;2022-07-12T04:29:57;1.43;;;0.87;;
34783;SDS011;20998;51.388;7.032;2022-07-12T04:32:23;2.23;;;1.20;;
34783;SDS011;20998;51.388;7.032;2022-07-12T04:34:49;2.27;;;1.77;;
34783;SDS011;20998;51.388;7.032;2022-07-12T04:37:15;5.57;;;3.40;;
34783;SDS011;20998;51.388;7.032;2022-07-12T04:39:41;7.03;;;4.63;;
34783;SDS011;20998;51.388;7.032;2022-07-12T04:42:07;3.20;;;2.00;;
34783;SDS011;20998;51.388;7.032;2022-07-12T04:44:33;3.13;;;2.30;;
34783;SDS011;20998;51.388;7.032;2022-07-12T04:46:59;1.03;;;0.93;;
34783;SDS011;20998;51.388;7.032;2022-07-12T04:49:25;0.93;;;0.87;;
34783;SDS011;20998;51.388;7.032;2022-07-12T04:51:51;1.67;;;1.40;;
34783;SDS011;20998;51.388;7.032;2022-07-12T04:54:17;2.00;;;1.33;;
34783;SDS011;20998;51.388;7.032;2022-07-12T04:56:43;3.70;;;1.37;;
34783;SDS011;20998;51.388;7.032;2022-07-12T04:59:09;0.70;;;0.70;;
34783;SDS011;20998;51.388;7.032;2022-07-12T05:01:35;1.97;;;0.93;;
34783;SDS011;20998;51.388;7.032;2022-07-12T05:04:01;1.37;;;1.27;;
34783;SDS011;20998;51.388;7.032;2022-07-12T05:06:27;2.40;;;1.63;;
34783;SDS011;20998;51.388;7.032;2022-07-12T05:08:53;1.10;;;1.00;;
34783;SDS011;20998;51.388;7.032;2022-07-12T05:11:20;1.50;;;1.30;;
34783;SDS011;20998;51.388;7.032;2022-07-12T05:13:46;0.93;;;0.80;;
34783;SDS011;20998;51.388;7.032;2022-07-12T05:16:12;0.87;;;0.87;;
34783;SDS011;20998;51.388;7.032;2022-07-12T05:18:38;2.07;;;1.60;;
34783;SDS011;20998;51.388;7.032;2022-07-12T05:21:04;1.43;;;0.80;;
34783;SDS011;20998;51.388;7.032;2022-07-12T05:23:30;1.00;;;0.87;;
34783;SDS011;20998;51.388;7.032;2022-07-12T05:25:56;2.47;;;1.57;;
34783;SDS011;20998;51.388;7.032;2022-07-12T05:28:22;1.43;;;1.33;;
34783;SDS011;20998;51.388;7.032;2022-07-12T05:30:48;1.57;;;1.23;;
34783;SDS011;20998;51.388;7.032;2022-07-12T05:33:14;0.70;;;0.70;;
34783;SDS011;20998;51.388;7.032;2022-07-12T05:35:40;0.80;;;0.80;;
34783;SDS011;20998;51.388;7.032;2022-07-12T05:38:06;1.17;;;1.10;;
34783;SDS011;20998;51.388;7.032;2022-07-12T05:40:33;0.70;;;0.70;;
34783;SDS011;20998;51.388;7.032;2022-07-12T05:42:59;1.57;;;1.03;;
34783;SDS011;20998;51.388;7.032;2022-07-12T05:45:25;0.90;;;0.90;;
34783;SDS011;20998;51.388;7.032;2022-07-12T05:47:51;1.20;;;1.07;;
34783;SDS011;20998;51.388;7.032;2022-07-12T05:50:17;0.83;;;0.83;;
34783;SDS011;20998;51.388;7.032;2022-07-12T05:52:43;1.97;;;1.00;;
34783;SDS011;20998;51.388;7.032;2022-07-12T05:55:28;0.97;;;0.87;;
34783;SDS011;20998;51.388;7.032;2022-07-12T05:57:54;0.70;;;0.70;;
34783;SDS011;20998;51.388;7.032;2022-07-12T06:00:20;0.80;;;0.80;;
34783;SDS011;20998;51.388;7.032;2022-07-12T06:02:46;0.80;;;0.80;;
34783;SDS011;20998;51.388;7.032;2022-07-12T06:05:12;0.60;;;0.60;;
34783;SDS011;20998;51.388;7.032;2022-07-12T06:07:38;0.90;;;0.90;;
34783;SDS011;20998;51.388;7.032;2022-07-12T06:10:04;1.50;;;1.40;;
34783;SDS011;20998;51.388;7.032;2022-07-12T06:12:31;3.13;;;1.53;;
34783;SDS011;20998;51.388;7.032;2022-07-12T06:14:57;0.97;;;0.97;;
34783;SDS011;20998;51.388;7.032;2022-07-12T06:17:23;1.07;;;0.97;;
34783;SDS011;20998;51.388;7.032;2022-07-12T06:19:49;0.97;;;0.70;;
34783;SDS011;20998;51.388;7.032;2022-07-12T06:22:15;1.10;;;1.03;;
34783;SDS011;20998;51.388;7.032;2022-07-12T06:24:41;16.03;;;1.13;;
34783;SDS011;20998;51.388;7.032;2022-07-12T06:27:06;1.57;;;0.97;;
34783;SDS011;20998;51.388;7.032;2022-07-12T06:29:32;2.20;;;0.97;;
34783;SDS011;20998;51.388;7.032;2022-07-12T06:31:58;0.93;;;0.90;;
34783;SDS011;20998;51.388;7.032;2022-07-12T06:34:25;1.50;;;1.20;;
34783;SDS011;20998;51.388;7.032;2022-07-12T06:36:51;2.43;;;1.17;;
34783;SDS011;20998;51.388;7.032;2022-07-12T06:39:17;1.40;;;0.90;;
34783;SDS011;20998;51.388;7.032;2022-07-12T06:41:43;1.47;;;0.90;;
34783;SDS011;20998;51.388;7.032;2022-07-12T06:44:09;0.83;;;0.83;;
34783;SDS011;20998;51.388;7.032;2022-07-12T06:46:35;1.30;;;1.20;;
34783;SDS011;20998;51.388;7.032;2022-07-12T06:49:01;2.40;;;1.53;;
34783;SDS011;20998;51.388;7.032;2022-07-12T06:51:27;2.33;;;1.87;;
34783;SDS011;20998;51.388;7.032;2022-07-12T06:53:52;1.73;;;1.63;;
34783;SDS011;20998;51.388;7.032;2022-07-12T06:56:18;2.40;;;1.83;;
34783;SDS011;20998;51.388;7.032;2022-07-12T06:58:44;3.10;;;1.97;;
34783;SDS011;20998;51.388;7.032;2022-07-12T07:01:10;3.40;;;1.50;;
34783;SDS011;20998;51.388;7.032;2022-07-12T07:03:36;3.37;;;1.90;;
34783;SDS011;20998;51.388;7.032;2022-07-12T07:06:02;2.87;;;2.17;;
34783;SDS011;20998;51.388;7.032;2022-07-12T07:08:28;11.20;;;2.53;;
34783;SDS011;20998;51.388;7.032;2022-07-12T07:10:56;2.37;;;2.03;;
34783;SDS011;20998;51.388;7.032;2022-07-12T07:13:22;2.30;;;2.10;;
34783;SDS011;20998;51.388;7.032;2022-07-12T07:15:49;7.97;;;2.80;;
34783;SDS011;20998;51.388;7.032;2022-07-12T07:18:15;6.00;;;3.10;;
34783;SDS011;20998;51.388;7.032;2022-07-12T07:20:41;2.13;;;1.90;;
34783;SDS011;20998;51.388;7.032;2022-07-12T07:23:07;3.53;;;2.30;;
34783;SDS011;20998;51.388;7.032;2022-07-12T07:25:35;2.17;;;1.53;;
34783;SDS011;20998;51.388;7.032;2022-07-12T07:28:01;2.40;;;2.03;;
34783;SDS011;20998;51.388;7.032;2022-07-12T07:30:27;11.63;;;2.20;;
34783;SDS011;20998;51.388;7.032;2022-07-12T07:33:11;2.23;;;2.03;;
34783;SDS011;20998;51.388;7.032;2022-07-12T07:35:37;2.23;;;1.90;;
34783;SDS011;20998;51.388;7.032;2022-07-12T07:38:03;2.50;;;1.27;;
34783;SDS011;20998;51.388;7.032;2022-07-12T07:40:29;1.37;;;1.27;;
34783;SDS011;20998;51.388;7.032;2022-07-12T07:42:55;2.47;;;1.80;;
34783;SDS011;20998;51.388;7.032;2022-07-12T07:45:21;1.53;;;1.30;;
34783;SDS011;20998;51.388;7.032;2022-07-12T07:47:48;1.83;;;1.37;;
34783;SDS011;20998;51.388;7.032;2022-07-12T07:50:14;1.37;;;1.13;;
34783;SDS011;20998;51.388;7.032;2022-07-12T07:52:41;2.33;;;1.43;;
34783;SDS011;20998;51.388;7.032;2022-07-12T07:55:07;0.80;;;0.80;;
34783;SDS011;20998;51.388;7.032;2022-07-12T07:57:33;3.47;;;1.50;;
34783;SDS011;20998;51.388;7.032;2022-07-12T07:59:59;1.07;;;0.90;;
34783;SDS011;20998;51.388;7.032;2022-07-12T08:02:25;2.80;;;1.57;;
34783;SDS011;20998;51.388;7.032;2022-07-12T08:04:51;1.70;;;1.03;;
34783;SDS011;20998;51.388;7.032;2022-07-12T08:07:17;2.10;;;1.33;;
34783;SDS011;20998;51.388;7.032;2022-07-12T08:09:43;1.97;;;1.17;;
34783;SDS011;20998;51.388;7.032;2022-07-12T08:12:09;0.93;;;0.93;;
34783;SDS011;20998;51.388;7.032;2022-07-12T08:14:35;0.80;;;0.80;;
34783;SDS011;20998;51.388;7.032;2022-07-12T08:17:01;1.30;;;0.97;;
34783;SDS011;20998;51.388;7.032;2022-07-12T08:19:27;0.70;;;0.70;;
34783;SDS011;20998;51.388;7.032;2022-07-12T08:21:53;2.07;;;1.37;;
34783;SDS011;20998;51.388;7.032;2022-07-12T08:24:19;1.33;;;1.00;;
34783;SDS011;20998;51.388;7.032;2022-07-12T08:26:45;1.50;;;0.77;;
34783;SDS011;20998;51.388;7.032;2022-07-12T08:29:11;1.03;;;0.93;;
34783;SDS011;20998;51.388;7.032;2022-07-12T08:31:37;0.77;;;0.77;;
34783;SDS011;20998;51.388;7.032;2022-07-12T08:34:03;1.08;;;0.98;;
34783;SDS011;20998;51.388;7.032;2022-07-12T08:36:29;0.85;;;0.80;;
34783;SDS011;20998;51.388;7.032;2022-07-12T08:38:55;5.07;;;0.98;;
34783;SDS011;20998;51.388;7.032;2022-07-12T08:41:21;0.90;;;0.80;;
34783;SDS011;20998;51.388;7.032;2022-07-12T08:43:47;0.88;;;0.70;;
34783;SDS011;20998;51.388;7.032;2022-07-12T08:46:13;1.17;;;0.88;;
34783;SDS011;20998;51.388;7.032;2022-07-12T08:48:40;8.40;;;1.05;;
34783;SDS011;20998;51.388;7.032;2022-07-12T08:51:11;1.25;;;1.13;;
34783;SDS011;20998;51.388;7.032;2022-07-12T08:53:37;0.80;;;0.80;;
34783;SDS011;20998;51.388;7.032;2022-07-12T08:56:03;0.70;;;0.70;;
34783;SDS011;20998;51.388;7.032;2022-07-12T08:58:30;1.52;;;1.25;;
34783;SDS011;20998;51.388;7.032;2022-07-12T09:00:56;1.80;;;1.15;;
34783;SDS011;20998;51.388;7.032;2022-07-12T09:03:22;2.05;;;1.17;;
34783;SDS011;20998;51.388;7.032;2022-07-12T09:05:55;1.73;;;1.20;;
34783;SDS011;20998;51.388;7.032;2022-07-12T09:08:31;5.40;;;1.10;;
34783;SDS011;20998;51.388;7.032;2022-07-12T09:10:58;1.27;;;1.17;;
34783;SDS011;20998;51.388;7.032;2022-07-12T09:13:47;3.45;;;1.02;;
34783;SDS011;20998;51.388;7.032;2022-07-12T09:16:14;1.15;;;1.02;;
34783;SDS011;20998;51.388;7.032;2022-07-12T09:18:40;1.02;;;1.02;;
34783;SDS011;20998;51.388;7.032;2022-07-12T09:21:06;0.70;;;0.70;;
34783;SDS011;20998;51.388;7.032;2022-07-12T09:23:32;5.60;;;0.90;;
34783;SDS011;20998;51.388;7.032;2022-07-12T09:25:58;0.88;;;0.88;;
34783;SDS011;20998;51.388;7.032;2022-07-12T09:28:24;1.38;;;0.68;;
34783;SDS011;20998;51.388;7.032;2022-07-12T09:30:51;1.17;;;0.77;;
34783;SDS011;20998;51.388;7.032;2022-07-12T09:33:19;0.90;;;0.57;;
34783;SDS011;20998;51.388;7.032;2022-07-12T09:36:04;0.80;;;0.70;;
34783;SDS011;20998;51.388;7.032;2022-07-12T09:38:49;0.55;;;0.43;;
34783;SDS011;20998;51.388;7.032;2022-07-12T09:41:19;0.60;;;0.60;;
34783;SDS011;20998;51.388;7.032;2022-07-12T09:43:45;0.80;;;0.70;;
34783;SDS011;20998;51.388;7.032;2022-07-12T09:46:11;2.92;;;0.80;;
34783;SDS011;20998;51.388;7.032;2022-07-12T09:48:39;4.68;;;0.80;;
34783;SDS011;20998;51.388;7.032;2022-07-12T09:51:06;0.40;;;0.40;;
34783;SDS011;20998;51.388;7.032;2022-07-12T09:53:48;1.15;;;0.82;;
34783;SDS011;20998;51.388;7.032;2022-07-12T09:56:17;1.13;;;0.70;;
34783;SDS011;20998;51.388;7.032;2022-07-12T09:58:56;0.60;;;0.60;;
34783;SDS011;20998;51.388;7.032;2022-07-12T10:01:23;0.52;;;0.50;;
34783;SDS011;20998;51.388;7.032;2022-07-12T10:03:52;0.65;;;0.65;;
34783;SDS011;20998;51.388;7.032;2022-07-12T10:06:23;0.57;;;0.57;;
34783;SDS011;20998;51.388;7.032;2022-07-12T10:08:50;1.25;;;0.80;;
34783;SDS011;20998;51.388;7.032;2022-07-12T10:11:17;0.77;;;0.60;;
34783;SDS011;20998;51.388;7.032;2022-07-12T10:13:43;0.40;;;0.40;;
34783;SDS011;20998;51.388;7.032;2022-07-12T10:16:10;0.70;;;0.68;;
34783;SDS011;20998;51.388;7.032;2022-07-12T10:18:36;0.70;;;0.70;;
34783;SDS011;20998;51.388;7.032;2022-07-12T10:21:05;0.93;;;0.70;;
34783;SDS011;20998;51.388;7.032;2022-07-12T10:23:43;0.70;;;0.60;;
34783;SDS011;20998;51.388;7.032;2022-07-12T10:31:31;0.38;;;0.38;;
34783;SDS011;20998;51.388;7.032;2022-07-12T10:39:18;0.70;;;0.68;;
34783;SDS011;20998;51.388;7.032;2022-07-12T10:41:44;0.70;;;0.70;;
34783;SDS011;20998;51.388;7.032;2022-07-12T10:47:00;0.77;;;0.60;;
34783;SDS011;20998;51.388;7.032;2022-07-12T10:49:27;0.60;;;0.60;;
34783;SDS011;20998;51.388;7.032;2022-07-12T10:54:38;7.20;;;0.80;;
34783;SDS011;20998;51.388;7.032;2022-07-12T10:57:04;1.30;;;0.60;;
34783;SDS011;20998;51.388;7.032;2022-07-12T10:59:33;0.70;;;0.70;;
34783;SDS011;20998;51.388;7.032;2022-07-12T11:01:59;0.85;;;0.85;;
34783;SDS011;20998;51.388;7.032;2022-07-12T11:04:25;0.63;;;0.60;;
34783;SDS011;20998;51.388;7.032;2022-07-12T11:06:55;0.55;;;0.55;;
34783;SDS011;20998;51.388;7.032;2022-07-12T11:09:23;5.35;;;1.08;;
34783;SDS011;20998;51.388;7.032;2022-07-12T11:11:49;1.00;;;0.70;;
34783;SDS011;20998;51.388;7.032;2022-07-12T11:14:26;0.80;;;0.80;;
34783;SDS011;20998;51.388;7.032;2022-07-12T11:16:52;0.60;;;0.55;;
34783;SDS011;20998;51.388;7.032;2022-07-12T11:19:22;0.80;;;0.80;;
34783;SDS011;20998;51.388;7.032;2022-07-12T11:21:49;0.60;;;0.60;;
34783;SDS011;20998;51.388;7.032;2022-07-12T11:24:21;2.00;;;0.80;;
34783;SDS011;20998;51.388;7.032;2022-07-12T11:26:47;1.42;;;0.50;;
34783;SDS011;20998;51.388;7.032;2022-07-12T11:29:14;0.50;;;0.50;;
34783;SDS011;20998;51.388;7.032;2022-07-12T11:31:40;5.82;;;2.30;;
34783;SDS011;20998;51.388;7.032;2022-07-12T11:34:06;0.95;;;0.70;;
34783;SDS011;20998;51.388;7.032;2022-07-12T11:36:32;0.73;;;0.65;;
34783;SDS011;20998;51.388;7.032;2022-07-12T11:38:58;0.63;;;0.63;;
34783;SDS011;20998;51.388;7.032;2022-07-12T11:41:25;0.40;;;0.40;;
34783;SDS011;20998;51.388;7.032;2022-07-12T11:43:51;0.88;;;0.80;;
34783;SDS011;20998;51.388;7.032;2022-07-12T11:46:17;0.73;;;0.60;;
34783;SDS011;20998;51.388;7.032;2022-07-12T11:48:43;0.88;;;0.80;;
34783;SDS011;20998;51.388;7.032;2022-07-12T11:51:10;0.57;;;0.52;;
34783;SDS011;20998;51.388;7.032;2022-07-12T11:53:37;0.80;;;0.60;;
34783;SDS011;20998;51.388;7.032;2022-07-12T11:56:15;0.70;;;0.70;;
34783;SDS011;20998;51.388;7.032;2022-07-12T11:58:41;2.13;;;1.00;;
34783;SDS011;20998;51.388;7.032;2022-07-12T12:01:10;0.63;;;0.57;;
34783;SDS011;20998;51.388;7.032;2022-07-12T12:03:46;0.40;;;0.40;;
34783;SDS011;20998;51.388;7.032;2022-07-12T12:06:12;1.90;;;0.50;;
34783;SDS011;20998;51.388;7.032;2022-07-12T12:08:39;1.38;;;1.17;;
34783;SDS011;20998;51.388;7.032;2022-07-12T12:11:05;1.65;;;1.02;;
34783;SDS011;20998;51.388;7.032;2022-07-12T12:13:31;1.05;;;0.80;;
34783;SDS011;20998;51.388;7.032;2022-07-12T12:15:58;1.13;;;0.95;;
34783;SDS011;20998;51.388;7.032;2022-07-12T12:18:28;0.70;;;0.70;;
34783;SDS011;20998;51.388;7.032;2022-07-12T12:21:02;0.70;;;0.70;;
34783;SDS011;20998;51.388;7.032;2022-07-12T12:23:28;0.68;;;0.60;;
34783;SDS011;20998;51.388;7.032;2022-07-12T12:26:10;1.50;;;0.65;;
34783;SDS011;20998;51.388;7.032;2022-07-12T12:28:46;0.55;;;0.55;;
34783;SDS011;20998;51.388;7.032;2022-07-12T12:31:13;3.67;;;0.80;;
34783;SDS011;20998;51.388;7.032;2022-07-12T12:33:46;3.83;;;0.75;;
34783;SDS011;20998;51.388;7.032;2022-07-12T12:38:52;0.75;;;0.75;;
34783;SDS011;20998;51.388;7.032;2022-07-12T12:41:18;1.13;;;1.00;;
34783;SDS011;20998;51.388;7.032;2022-07-12T12:43:47;6.32;;;0.90;;
34783;SDS011;20998;51.388;7.032;2022-07-12T12:46:13;0.98;;;0.77;;
34783;SDS011;20998;51.388;7.032;2022-07-12T12:48:46;0.80;;;0.80;;
34783;SDS011;20998;51.388;7.032;2022-07-12T12:51:13;0.60;;;0.60;;
34783;SDS011;20998;51.388;7.032;2022-07-12T12:53:39;0.73;;;0.70;;
34783;SDS011;20998;51.388;7.032;2022-07-12T12:56:06;0.90;;;0.85;;
34783;SDS011;20998;51.388;7.032;2022-07-12T12:58:33;4.07;;;1.00;;
34783;SDS011;20998;51.388;7.032;2022-07-12T13:01:00;2.92;;;1.30;;
34783;SDS011;20998;51.388;7.032;2022-07-12T13:03:26;0.90;;;0.80;;
34783;SDS011;20998;51.388;7.032;2022-07-12T13:05:52;0.77;;;0.77;;
34783;SDS011;20998;51.388;7.032;2022-07-12T13:08:18;0.80;;;0.80;;
34783;SDS011;20998;51.388;7.032;2022-07-12T13:10:45;0.75;;;0.75;;
34783;SDS011;20998;51.388;7.032;2022-07-12T13:13:11;1.27;;;0.90;;
34783;SDS011;20998;51.388;7.032;2022-07-12T13:15:38;1.00;;;0.90;;
34783;SDS011;20998;51.388;7.032;2022-07-12T13:18:04;1.63;;;1.08;;
34783;SDS011;20998;51.388;7.032;2022-07-12T13:20:31;0.95;;;0.70;;
34783;SDS011;20998;51.388;7.032;2022-07-12T13:22:57;2.05;;;0.90;;
34783;SDS011;20998;51.388;7.032;2022-07-12T13:25:23;0.80;;;0.77;;
34783;SDS011;20998;51.388;7.032;2022-07-12T13:27:50;0.70;;;0.70;;
34783;SDS011;20998;51.388;7.032;2022-07-12T13:30:17;1.10;;;0.98;;
34783;SDS011;20998;51.388;7.032;2022-07-12T13:32:43;0.85;;;0.82;;
34783;SDS011;20998;51.388;7.032;2022-07-12T13:35:10;0.47;;;0.45;;
34783;SDS011;20998;51.388;7.032;2022-07-12T13:37:37;0.82;;;0.73;;
34783;SDS011;20998;51.388;7.032;2022-07-12T13:40:03;0.93;;;0.73;;
34783;SDS011;20998;51.388;7.032;2022-07-12T13:42:36;1.10;;;1.00;;
34783;SDS011;20998;51.388;7.032;2022-07-12T13:45:02;1.15;;;1.00;;
34783;SDS011;20998;51.388;7.032;2022-07-12T13:47:28;1.60;;;0.90;;
34783;SDS011;20998;51.388;7.032;2022-07-12T13:49:54;1.70;;;1.27;;
34783;SDS011;20998;51.388;7.032;2022-07-12T13:52:20;0.95;;;0.85;;
34783;SDS011;20998;51.388;7.032;2022-07-12T13:54:46;1.60;;;1.00;;
34783;SDS011;20998;51.388;7.032;2022-07-12T13:57:12;0.63;;;0.63;;
34783;SDS011;20998;51.388;7.032;2022-07-12T13:59:38;1.38;;;1.00;;
34783;SDS011;20998;51.388;7.032;2022-07-12T14:02:04;1.10;;;0.85;;
34783;SDS011;20998;51.388;7.032;2022-07-12T14:04:30;1.70;;;0.95;;
34783;SDS011;20998;51.388;7.032;2022-07-12T14:06:57;1.00;;;0.85;;
34783;SDS011;20998;51.388;7.032;2022-07-12T14:09:23;0.98;;;0.80;;
34783;SDS011;20998;51.388;7.032;2022-07-12T14:11:49;0.90;;;0.73;;
34783;SDS011;20998;51.388;7.032;2022-07-12T14:14:16;0.88;;;0.80;;
34783;SDS011;20998;51.388;7.032;2022-07-12T14:17:01;4.80;;;1.08;;
34783;SDS011;20998;51.388;7.032;2022-07-12T14:19:27;2.20;;;1.13;;
34783;SDS011;20998;51.388;7.032;2022-07-12T14:21:53;2.22;;;1.10;;
34783;SDS011;20998;51.388;7.032;2022-07-12T14:24:19;9.70;;;1.13;;
34783;SDS011;20998;51.388;7.032;2022-07-12T14:26:45;1.15;;;1.05;;
34783;SDS011;20998;51.388;7.032;2022-07-12T14:29:11;1.00;;;0.88;;
34783;SDS011;20998;51.388;7.032;2022-07-12T14:31:37;1.90;;;1.13;;
34783;SDS011;20998;51.388;7.032;2022-07-12T14:34:03;2.28;;;1.10;;
34783;SDS011;20998;51.388;7.032;2022-07-12T14:36:29;1.73;;;1.40;;
34783;SDS011;20998;51.388;7.032;2022-07-12T14:38:55;2.08;;;1.30;;
34783;SDS011;20998;51.388;7.032;2022-07-12T14:41:21;1.52;;;1.17;;
34783;SDS011;20998;51.388;7.032;2022-07-12T14:43:47;1.83;;;1.15;;
34783;SDS011;20998;51.388;7.032;2022-07-12T14:46:14;1.92;;;1.67;;
34783;SDS011;20998;51.388;7.032;2022-07-12T14:48:41;1.48;;;1.08;;
34783;SDS011;20998;51.388;7.032;2022-07-12T14:51:08;2.33;;;1.30;;
34783;SDS011;20998;51.388;7.032;2022-07-12T14:53:34;1.67;;;1.35;;
34783;SDS011;20998;51.388;7.032;2022-07-12T14:56:00;1.95;;;1.40;;
34783;SDS011;20998;51.388;7.032;2022-07-12T14:58:26;2.35;;;1.58;;
34783;SDS011;20998;51.388;7.032;2022-07-12T15:00:55;1.20;;;1.10;;
34783;SDS011;20998;51.388;7.032;2022-07-12T15:03:21;4.75;;;3.00;;
34783;SDS011;20998;51.388;7.032;2022-07-12T15:05:47;1.83;;;1.02;;